sensor_id;sensor_type;location;lat;lon;timestamp;temperature;humidity
11385;DHT22;5747;56.748;13.882;2022-08-05T00:00:21;16.70;99.90
11385;DHT22;5747;56.748;13.882;2022-08-05T00:02:51;16.60;99.90
11385;DHT22;5747;56.748;13.882;2022-08-05T00:05:20;16.60;99.90
11385;DHT22;5747;56.748;13.882;2022-08-05T00:08:08;16.60;99.90
11385;DHT22;5747;56.748;13.882;2022-08-05T00:10:59;16.50;99.90
11385;DHT22;5747;56.748;13.882;2022-08-05T00:13:30;16.40;99.90
11385;DHT22;5747;56.748;13.882;2022-08-05T00:16:06;16.40;99.90
11385;DHT22;5747;56.748;13.882;2022-08-05T00:18:38;16.30;99.90
11385;DHT22;5747;56.748;13.882;2022-08-05T00:21:08;16.30;99.90
11385;DHT22;5747;56.748;13.882;2022-08-05T00:23:39;16.20;99.90
11385;DHT22;5747;56.748;13.882;2022-08-05T00:26:20;16.20;99.90
11385;DHT22;5747;56.748;13.882;2022-08-05T00:28:49;16.10;99.90
11385;DHT22;5747;56.748;13.882;2022-08-05T00:31:18;15.90;99.90
11385;DHT22;5747;56.748;13.882;2022-08-05T00:34:06;15.90;99.90
11385;DHT22;5747;56.748;13.882;2022-08-05T00:36:54;15.90;99.90
11385;DHT22;5747;56.748;13.882;2022-08-05T00:39:40;15.90;99.90
11385;DHT22;5747;56.748;13.882;2022-08-05T00:42:33;15.90;99.90
11385;DHT22;5747;56.748;13.882;2022-08-05T00:45:04;15.90;99.90
11385;DHT22;5747;56.748;13.882;2022-08-05T00:47:37;15.90;99.90
11385;DHT22;5747;56.748;13.882;2022-08-05T00:50:26;15.90;99.90
11385;DHT22;5747;56.748;13.882;2022-08-05T00:52:54;15.90;99.90
11385;DHT22;5747;56.748;13.882;2022-08-05T00:55:22;16.00;99.90
11385;DHT22;5747;56.748;13.882;2022-08-05T00:58:10;15.90;99.90
11385;DHT22;5747;56.748;13.882;2022-08-05T01:00:39;15.80;99.90
11385;DHT22;5747;56.748;13.882;2022-08-05T01:03:09;15.80;99.90
11385;DHT22;5747;56.748;13.882;2022-08-05T01:05:48;15.70;99.90
11385;DHT22;5747;56.748;13.882;2022-08-05T01:08:17;15.70;99.90
11385;DHT22;5747;56.748;13.882;2022-08-05T01:11:10;15.60;99.90
11385;DHT22;5747;56.748;13.882;2022-08-05T01:13:47;15.60;99.90
11385;DHT22;5747;56.748;13.882;2022-08-05T01:16:29;15.50;99.90
11385;DHT22;5747;56.748;13.882;2022-08-05T01:19:02;15.50;99.90
11385;DHT22;5747;56.748;13.882;2022-08-05T01:21:51;15.50;99.90
11385;DHT22;5747;56.748;13.882;2022-08-05T01:24:39;15.40;99.90
11385;DHT22;5747;56.748;13.882;2022-08-05T01:27:19;15.30;99.90
11385;DHT22;5747;56.748;13.882;2022-08-05T01:29:56;15.30;99.90
11385;DHT22;5747;56.748;13.882;2022-08-05T01:32:26;15.30;99.90
11385;DHT22;5747;56.748;13.882;2022-08-05T01:34:58;15.20;99.90
11385;DHT22;5747;56.748;13.882;2022-08-05T01:37:33;15.20;99.90
11385;DHT22;5747;56.748;13.882;2022-08-05T01:40:03;15.20;99.90
11385;DHT22;5747;56.748;13.882;2022-08-05T01:42:33;15.30;99.90
11385;DHT22;5747;56.748;13.882;2022-08-05T01:45:06;15.20;99.90
11385;DHT22;5747;56.748;13.882;2022-08-05T01:47:35;15.30;99.90
11385;DHT22;5747;56.748;13.882;2022-08-05T01:50:12;15.30;99.90
11385;DHT22;5747;56.748;13.882;2022-08-05T01:52:44;15.20;99.90
11385;DHT22;5747;56.748;13.882;2022-08-05T01:55:18;15.20;99.90
11385;DHT22;5747;56.748;13.882;2022-08-05T01:57:48;15.10;99.90
11385;DHT22;5747;56.748;13.882;2022-08-05T02:00:41;15.00;99.90
11385;DHT22;5747;56.748;13.882;2022-08-05T02:03:16;15.00;99.90
11385;DHT22;5747;56.748;13.882;2022-08-05T02:05:58;15.10;99.90
11385;DHT22;5747;56.748;13.882;2022-08-05T02:08:47;15.00;99.90
11385;DHT22;5747;56.748;13.882;2022-08-05T02:11:25;15.00;99.90
11385;DHT22;5747;56.748;13.882;2022-08-05T02:14:04;14.90;99.90
11385;DHT22;5747;56.748;13.882;2022-08-05T02:16:44;14.90;99.90
11385;DHT22;5747;56.748;13.882;2022-08-05T02:19:24;14.80;99.90
11385;DHT22;5747;56.748;13.882;2022-08-05T02:22:15;14.80;99.90
11385;DHT22;5747;56.748;13.882;2022-08-05T02:24:54;14.80;99.90
11385;DHT22;5747;56.748;13.882;2022-08-05T02:27:26;15.00;99.90
11385;DHT22;5747;56.748;13.882;2022-08-05T02:30:16;15.10;99.90
11385;DHT22;5747;56.748;13.882;2022-08-05T02:32:48;15.00;99.90
11385;DHT22;5747;56.748;13.882;2022-08-05T02:35:19;15.00;99.90
11385;DHT22;5747;56.748;13.882;2022-08-05T02:37:59;15.00;99.90
11385;DHT22;5747;56.748;13.882;2022-08-05T02:40:29;15.00;99.90
11385;DHT22;5747;56.748;13.882;2022-08-05T02:42:59;15.00;99.90
11385;DHT22;5747;56.748;13.882;2022-08-05T02:45:33;15.00;99.90
11385;DHT22;5747;56.748;13.882;2022-08-05T02:48:21;15.00;99.90
11385;DHT22;5747;56.748;13.882;2022-08-05T02:50:57;15.10;99.90
11385;DHT22;5747;56.748;13.882;2022-08-05T02:53:28;15.10;99.90
11385;DHT22;5747;56.748;13.882;2022-08-05T02:56:06;15.20;99.90
11385;DHT22;5747;56.748;13.882;2022-08-05T02:58:35;15.20;99.90
11385;DHT22;5747;56.748;13.882;2022-08-05T03:01:13;15.20;99.90
11385;DHT22;5747;56.748;13.882;2022-08-05T03:03:49;15.20;99.90
11385;DHT22;5747;56.748;13.882;2022-08-05T03:06:29;15.20;99.90
11385;DHT22;5747;56.748;13.882;2022-08-05T03:09:18;15.20;99.90
11385;DHT22;5747;56.748;13.882;2022-08-05T03:12:04;15.40;99.90
11385;DHT22;5747;56.748;13.882;2022-08-05T03:14:34;15.30;99.90
11385;DHT22;5747;56.748;13.882;2022-08-05T03:17:12;15.30;99.90
11385;DHT22;5747;56.748;13.882;2022-08-05T03:19:41;15.20;99.90
11385;DHT22;5747;56.748;13.882;2022-08-05T03:22:11;15.30;99.90
11385;DHT22;5747;56.748;13.882;2022-08-05T03:24:46;15.40;99.90
11385;DHT22;5747;56.748;13.882;2022-08-05T03:27:17;15.40;99.90
11385;DHT22;5747;56.748;13.882;2022-08-05T03:29:46;15.40;99.90
11385;DHT22;5747;56.748;13.882;2022-08-05T03:32:34;15.40;99.90
11385;DHT22;5747;56.748;13.882;2022-08-05T03:35:04;15.50;99.90
11385;DHT22;5747;56.748;13.882;2022-08-05T03:37:34;15.50;99.90
11385;DHT22;5747;56.748;13.882;2022-08-05T03:40:13;15.40;99.90
11385;DHT22;5747;56.748;13.882;2022-08-05T03:42:58;15.30;99.90
11385;DHT22;5747;56.748;13.882;2022-08-05T03:45:47;15.30;99.90
11385;DHT22;5747;56.748;13.882;2022-08-05T03:48:25;15.40;99.90
11385;DHT22;5747;56.748;13.882;2022-08-05T03:51:00;15.40;99.90
11385;DHT22;5747;56.748;13.882;2022-08-05T03:53:54;15.40;99.90
11385;DHT22;5747;56.748;13.882;2022-08-05T03:56:45;15.40;99.90
11385;DHT22;5747;56.748;13.882;2022-08-05T03:59:19;15.40;99.90
11385;DHT22;5747;56.748;13.882;2022-08-05T04:01:50;15.20;99.90
11385;DHT22;5747;56.748;13.882;2022-08-05T04:04:26;15.20;99.90
11385;DHT22;5747;56.748;13.882;2022-08-05T04:06:57;15.30;99.90
11385;DHT22;5747;56.748;13.882;2022-08-05T04:09:26;15.20;99.90
11385;DHT22;5747;56.748;13.882;2022-08-05T04:11:55;15.20;99.90
11385;DHT22;5747;56.748;13.882;2022-08-05T04:14:24;15.30;99.90
11385;DHT22;5747;56.748;13.882;2022-08-05T04:16:57;15.40;99.90
11385;DHT22;5747;56.748;13.882;2022-08-05T04:19:29;15.50;99.90
11385;DHT22;5747;56.748;13.882;2022-08-05T04:21:58;15.60;99.90
11385;DHT22;5747;56.748;13.882;2022-08-05T04:24:38;15.70;99.90
11385;DHT22;5747;56.748;13.882;2022-08-05T04:27:18;16.00;99.90
11385;DHT22;5747;56.748;13.882;2022-08-05T04:30:07;16.40;99.90
11385;DHT22;5747;56.748;13.882;2022-08-05T04:32:36;16.40;99.90
11385;DHT22;5747;56.748;13.882;2022-08-05T04:35:08;16.50;99.90
11385;DHT22;5747;56.748;13.882;2022-08-05T04:37:46;16.60;99.90
11385;DHT22;5747;56.748;13.882;2022-08-05T04:40:32;16.60;99.90
11385;DHT22;5747;56.748;13.882;2022-08-05T04:43:01;16.80;99.90
11385;DHT22;5747;56.748;13.882;2022-08-05T04:45:30;17.00;99.90
11385;DHT22;5747;56.748;13.882;2022-08-05T04:48:19;17.20;99.90
11385;DHT22;5747;56.748;13.882;2022-08-05T04:50:54;17.20;99.90
11385;DHT22;5747;56.748;13.882;2022-08-05T04:53:31;17.40;99.90
11385;DHT22;5747;56.748;13.882;2022-08-05T04:56:01;17.50;99.90
11385;DHT22;5747;56.748;13.882;2022-08-05T04:58:49;17.60;99.90
11385;DHT22;5747;56.748;13.882;2022-08-05T05:01:18;17.90;99.90
11385;DHT22;5747;56.748;13.882;2022-08-05T05:04:06;18.10;99.90
11385;DHT22;5747;56.748;13.882;2022-08-05T05:06:35;18.20;99.90
11385;DHT22;5747;56.748;13.882;2022-08-05T05:09:16;18.20;99.90
11385;DHT22;5747;56.748;13.882;2022-08-05T05:11:45;18.30;99.90
11385;DHT22;5747;56.748;13.882;2022-08-05T05:14:21;18.50;99.90
11385;DHT22;5747;56.748;13.882;2022-08-05T05:16:57;18.50;99.90
11385;DHT22;5747;56.748;13.882;2022-08-05T05:19:26;18.50;99.90
11385;DHT22;5747;56.748;13.882;2022-08-05T05:22:10;18.50;99.90
11385;DHT22;5747;56.748;13.882;2022-08-05T05:24:53;18.30;99.90
11385;DHT22;5747;56.748;13.882;2022-08-05T05:27:25;18.30;99.90
11385;DHT22;5747;56.748;13.882;2022-08-05T05:30:14;18.20;99.90
11385;DHT22;5747;56.748;13.882;2022-08-05T05:32:57;18.10;99.90
11385;DHT22;5747;56.748;13.882;2022-08-05T05:35:43;18.10;99.90
11385;DHT22;5747;56.748;13.882;2022-08-05T05:38:11;18.00;99.90
11385;DHT22;5747;56.748;13.882;2022-08-05T05:40:42;18.00;99.90
11385;DHT22;5747;56.748;13.882;2022-08-05T05:43:17;18.00;99.90
11385;DHT22;5747;56.748;13.882;2022-08-05T05:46:06;17.90;99.90
11385;DHT22;5747;56.748;13.882;2022-08-05T05:48:44;17.80;99.90
11385;DHT22;5747;56.748;13.882;2022-08-05T05:51:18;17.80;99.90
11385;DHT22;5747;56.748;13.882;2022-08-05T05:53:46;17.90;99.90
11385;DHT22;5747;56.748;13.882;2022-08-05T05:56:26;18.00;99.90
11385;DHT22;5747;56.748;13.882;2022-08-05T05:59:01;18.10;99.90
11385;DHT22;5747;56.748;13.882;2022-08-05T06:01:32;18.20;99.90
11385;DHT22;5747;56.748;13.882;2022-08-05T06:04:05;18.20;99.90
11385;DHT22;5747;56.748;13.882;2022-08-05T06:06:33;18.20;99.90
11385;DHT22;5747;56.748;13.882;2022-08-05T06:09:03;18.10;99.90
11385;DHT22;5747;56.748;13.882;2022-08-05T06:11:34;18.10;99.90
11385;DHT22;5747;56.748;13.882;2022-08-05T06:14:05;18.00;99.90
11385;DHT22;5747;56.748;13.882;2022-08-05T06:16:33;18.20;99.90
11385;DHT22;5747;56.748;13.882;2022-08-05T06:19:04;18.20;99.90
11385;DHT22;5747;56.748;13.882;2022-08-05T06:21:35;18.60;99.90
11385;DHT22;5747;56.748;13.882;2022-08-05T06:24:08;19.20;99.90
11385;DHT22;5747;56.748;13.882;2022-08-05T06:26:40;19.80;99.90
11385;DHT22;5747;56.748;13.882;2022-08-05T06:29:19;20.10;99.90
11385;DHT22;5747;56.748;13.882;2022-08-05T06:32:08;20.10;99.90
11385;DHT22;5747;56.748;13.882;2022-08-05T06:34:55;19.80;99.90
11385;DHT22;5747;56.748;13.882;2022-08-05T06:37:24;19.70;99.90
11385;DHT22;5747;56.748;13.882;2022-08-05T06:40:14;19.90;99.90
11385;DHT22;5747;56.748;13.882;2022-08-05T06:42:48;20.10;99.90
11385;DHT22;5747;56.748;13.882;2022-08-05T06:45:19;19.80;99.90
11385;DHT22;5747;56.748;13.882;2022-08-05T06:48:08;19.70;99.90
11385;DHT22;5747;56.748;13.882;2022-08-05T06:50:56;19.70;99.90
11385;DHT22;5747;56.748;13.882;2022-08-05T06:53:26;19.80;99.90
11385;DHT22;5747;56.748;13.882;2022-08-05T06:55:55;19.60;99.90
11385;DHT22;5747;56.748;13.882;2022-08-05T06:58:26;19.50;99.90
11385;DHT22;5747;56.748;13.882;2022-08-05T07:01:03;19.20;99.90
11385;DHT22;5747;56.748;13.882;2022-08-05T07:03:33;19.00;99.90
11385;DHT22;5747;56.748;13.882;2022-08-05T07:06:01;18.70;99.90
11385;DHT22;5747;56.748;13.882;2022-08-05T07:08:40;18.50;99.90
11385;DHT22;5747;56.748;13.882;2022-08-05T07:11:08;18.10;99.90
11385;DHT22;5747;56.748;13.882;2022-08-05T07:13:43;17.80;99.90
11385;DHT22;5747;56.748;13.882;2022-08-05T07:16:30;17.50;99.90
11385;DHT22;5747;56.748;13.882;2022-08-05T07:19:36;17.30;99.90
11385;DHT22;5747;56.748;13.882;2022-08-05T07:22:24;17.10;99.90
11385;DHT22;5747;56.748;13.882;2022-08-05T07:24:59;16.80;99.90
11385;DHT22;5747;56.748;13.882;2022-08-05T07:27:49;16.80;99.90
11385;DHT22;5747;56.748;13.882;2022-08-05T07:30:30;16.70;99.90
11385;DHT22;5747;56.748;13.882;2022-08-05T07:33:00;16.60;99.90
11385;DHT22;5747;56.748;13.882;2022-08-05T07:35:35;16.50;99.90
11385;DHT22;5747;56.748;13.882;2022-08-05T07:38:24;16.50;99.90
11385;DHT22;5747;56.748;13.882;2022-08-05T07:41:03;16.40;99.90
11385;DHT22;5747;56.748;13.882;2022-08-05T07:43:51;16.30;99.90
11385;DHT22;5747;56.748;13.882;2022-08-05T07:46:24;16.20;99.90
11385;DHT22;5747;56.748;13.882;2022-08-05T07:48:53;16.30;99.90
11385;DHT22;5747;56.748;13.882;2022-08-05T07:51:32;16.40;99.90
11385;DHT22;5747;56.748;13.882;2022-08-05T07:54:04;16.40;99.90
11385;DHT22;5747;56.748;13.882;2022-08-05T07:56:35;16.40;99.90
11385;DHT22;5747;56.748;13.882;2022-08-05T07:59:24;16.30;99.90
11385;DHT22;5747;56.748;13.882;2022-08-05T08:02:08;16.20;99.90
11385;DHT22;5747;56.748;13.882;2022-08-05T08:04:44;16.10;99.90
11385;DHT22;5747;56.748;13.882;2022-08-05T08:07:13;16.10;99.90
11385;DHT22;5747;56.748;13.882;2022-08-05T08:09:43;16.00;99.90
11385;DHT22;5747;56.748;13.882;2022-08-05T08:12:12;15.90;99.90
11385;DHT22;5747;56.748;13.882;2022-08-05T08:15:00;15.90;99.90
11385;DHT22;5747;56.748;13.882;2022-08-05T08:17:32;15.80;99.90
11385;DHT22;5747;56.748;13.882;2022-08-05T08:20:01;15.80;99.90
11385;DHT22;5747;56.748;13.882;2022-08-05T08:22:52;15.80;99.90
11385;DHT22;5747;56.748;13.882;2022-08-05T08:25:22;15.60;99.90
11385;DHT22;5747;56.748;13.882;2022-08-05T08:28:10;15.70;99.90
11385;DHT22;5747;56.748;13.882;2022-08-05T08:30:58;15.60;99.90
11385;DHT22;5747;56.748;13.882;2022-08-05T08:33:28;15.50;99.90
11385;DHT22;5747;56.748;13.882;2022-08-05T08:36:04;15.50;99.90
11385;DHT22;5747;56.748;13.882;2022-08-05T08:38:52;15.50;99.90
11385;DHT22;5747;56.748;13.882;2022-08-05T08:41:21;15.70;99.90
11385;DHT22;5747;56.748;13.882;2022-08-05T08:44:13;15.80;99.90
11385;DHT22;5747;56.748;13.882;2022-08-05T08:47:02;15.80;99.90
11385;DHT22;5747;56.748;13.882;2022-08-05T08:49:53;15.70;99.90
11385;DHT22;5747;56.748;13.882;2022-08-05T08:52:45;15.80;99.90
11385;DHT22;5747;56.748;13.882;2022-08-05T08:55:20;15.70;99.90
11385;DHT22;5747;56.748;13.882;2022-08-05T08:58:09;15.70;99.90
11385;DHT22;5747;56.748;13.882;2022-08-05T09:00:39;15.70;99.90
11385;DHT22;5747;56.748;13.882;2022-08-05T09:03:08;15.80;99.90
11385;DHT22;5747;56.748;13.882;2022-08-05T09:05:38;15.90;99.90
11385;DHT22;5747;56.748;13.882;2022-08-05T09:08:26;16.10;99.90
11385;DHT22;5747;56.748;13.882;2022-08-05T09:10:56;16.50;99.90
11385;DHT22;5747;56.748;13.882;2022-08-05T09:13:24;16.70;99.90
11385;DHT22;5747;56.748;13.882;2022-08-05T09:16:13;16.90;99.90
11385;DHT22;5747;56.748;13.882;2022-08-05T09:18:43;17.00;99.90
11385;DHT22;5747;56.748;13.882;2022-08-05T09:21:12;17.00;99.90
11385;DHT22;5747;56.748;13.882;2022-08-05T09:24:02;16.90;99.90
11385;DHT22;5747;56.748;13.882;2022-08-05T09:26:32;16.80;99.90
11385;DHT22;5747;56.748;13.882;2022-08-05T09:29:04;16.80;99.90
11385;DHT22;5747;56.748;13.882;2022-08-05T09:31:34;16.70;99.90
11385;DHT22;5747;56.748;13.882;2022-08-05T09:34:22;16.70;99.90
11385;DHT22;5747;56.748;13.882;2022-08-05T09:36:53;16.70;99.90
11385;DHT22;5747;56.748;13.882;2022-08-05T09:39:26;16.60;99.90
11385;DHT22;5747;56.748;13.882;2022-08-05T09:42:12;16.70;99.90
11385;DHT22;5747;56.748;13.882;2022-08-05T09:44:51;16.70;99.90
11385;DHT22;5747;56.748;13.882;2022-08-05T09:47:24;16.70;99.90
11385;DHT22;5747;56.748;13.882;2022-08-05T09:50:12;16.70;99.90
11385;DHT22;5747;56.748;13.882;2022-08-05T09:53:02;16.70;99.90
11385;DHT22;5747;56.748;13.882;2022-08-05T09:55:34;16.70;99.90
11385;DHT22;5747;56.748;13.882;2022-08-05T09:58:24;16.70;99.90
11385;DHT22;5747;56.748;13.882;2022-08-05T10:00:58;16.70;99.90
11385;DHT22;5747;56.748;13.882;2022-08-05T10:03:27;16.80;99.90
11385;DHT22;5747;56.748;13.882;2022-08-05T10:06:18;17.00;99.90
11385;DHT22;5747;56.748;13.882;2022-08-05T10:08:48;17.10;99.90
11385;DHT22;5747;56.748;13.882;2022-08-05T10:11:21;17.20;99.90
11385;DHT22;5747;56.748;13.882;2022-08-05T10:13:57;17.30;99.90
11385;DHT22;5747;56.748;13.882;2022-08-05T10:16:30;17.60;99.90
11385;DHT22;5747;56.748;13.882;2022-08-05T10:19:00;17.90;99.90
11385;DHT22;5747;56.748;13.882;2022-08-05T10:21:37;18.10;99.90
11385;DHT22;5747;56.748;13.882;2022-08-05T10:24:08;18.20;99.90
11385;DHT22;5747;56.748;13.882;2022-08-05T10:26:40;18.30;99.90
11385;DHT22;5747;56.748;13.882;2022-08-05T10:29:19;18.30;99.90
11385;DHT22;5747;56.748;13.882;2022-08-05T10:31:50;18.20;99.90
11385;DHT22;5747;56.748;13.882;2022-08-05T10:34:38;18.30;99.90
11385;DHT22;5747;56.748;13.882;2022-08-05T10:37:07;18.30;99.90
11385;DHT22;5747;56.748;13.882;2022-08-05T10:39:39;18.50;99.90
11385;DHT22;5747;56.748;13.882;2022-08-05T10:42:32;18.70;99.90
11385;DHT22;5747;56.748;13.882;2022-08-05T10:45:11;18.90;99.90
11385;DHT22;5747;56.748;13.882;2022-08-05T10:48:28;19.00;99.90
11385;DHT22;5747;56.748;13.882;2022-08-05T10:51:08;19.20;99.90
11385;DHT22;5747;56.748;13.882;2022-08-05T10:53:53;19.40;99.90
11385;DHT22;5747;56.748;13.882;2022-08-05T10:56:27;19.40;99.90
11385;DHT22;5747;56.748;13.882;2022-08-05T10:59:04;19.40;99.90
11385;DHT22;5747;56.748;13.882;2022-08-05T11:02:06;19.50;99.90
11385;DHT22;5747;56.748;13.882;2022-08-05T11:04:55;19.50;99.90
11385;DHT22;5747;56.748;13.882;2022-08-05T11:07:23;19.40;99.90
11385;DHT22;5747;56.748;13.882;2022-08-05T11:10:20;19.70;99.90
11385;DHT22;5747;56.748;13.882;2022-08-05T11:12:55;20.10;99.90
11385;DHT22;5747;56.748;13.882;2022-08-05T11:15:25;20.40;99.90
11385;DHT22;5747;56.748;13.882;2022-08-05T11:18:26;20.50;99.90
11385;DHT22;5747;56.748;13.882;2022-08-05T11:20:58;20.70;99.90
11385;DHT22;5747;56.748;13.882;2022-08-05T11:23:34;20.60;99.90
11385;DHT22;5747;56.748;13.882;2022-08-05T11:26:23;20.60;99.90
11385;DHT22;5747;56.748;13.882;2022-08-05T11:29:01;20.30;99.90
11385;DHT22;5747;56.748;13.882;2022-08-05T11:31:38;20.20;99.90
11385;DHT22;5747;56.748;13.882;2022-08-05T11:34:36;20.30;99.90
11385;DHT22;5747;56.748;13.882;2022-08-05T11:37:05;20.30;99.90
11385;DHT22;5747;56.748;13.882;2022-08-05T11:39:53;20.20;99.90
11385;DHT22;5747;56.748;13.882;2022-08-05T11:42:32;20.20;99.90
11385;DHT22;5747;56.748;13.882;2022-08-05T11:45:08;20.40;99.90
11385;DHT22;5747;56.748;13.882;2022-08-05T11:47:56;20.60;99.90
11385;DHT22;5747;56.748;13.882;2022-08-05T11:50:25;20.80;99.90
11385;DHT22;5747;56.748;13.882;2022-08-05T11:52:53;21.00;99.90
11385;DHT22;5747;56.748;13.882;2022-08-05T11:55:24;21.00;99.90
11385;DHT22;5747;56.748;13.882;2022-08-05T11:58:02;21.10;99.90
11385;DHT22;5747;56.748;13.882;2022-08-05T12:00:39;21.30;99.90
11385;DHT22;5747;56.748;13.882;2022-08-05T12:03:17;21.30;99.90
11385;DHT22;5747;56.748;13.882;2022-08-05T12:06:00;21.40;99.90
11385;DHT22;5747;56.748;13.882;2022-08-05T12:08:42;21.10;99.90
11385;DHT22;5747;56.748;13.882;2022-08-05T12:11:18;20.90;99.90
11385;DHT22;5747;56.748;13.882;2022-08-05T12:13:53;20.90;99.90
11385;DHT22;5747;56.748;13.882;2022-08-05T12:16:28;20.90;99.90
11385;DHT22;5747;56.748;13.882;2022-08-05T12:18:56;20.70;99.90
11385;DHT22;5747;56.748;13.882;2022-08-05T12:21:27;20.70;99.90
11385;DHT22;5747;56.748;13.882;2022-08-05T12:23:59;20.70;99.90
11385;DHT22;5747;56.748;13.882;2022-08-05T12:26:32;20.80;99.90
11385;DHT22;5747;56.748;13.882;2022-08-05T12:29:03;21.00;99.90
11385;DHT22;5747;56.748;13.882;2022-08-05T12:31:37;21.00;99.90
11385;DHT22;5747;56.748;13.882;2022-08-05T12:34:18;21.30;99.90
11385;DHT22;5747;56.748;13.882;2022-08-05T12:36:50;21.60;99.90
11385;DHT22;5747;56.748;13.882;2022-08-05T12:39:20;21.50;99.90
11385;DHT22;5747;56.748;13.882;2022-08-05T12:41:56;21.30;99.90
11385;DHT22;5747;56.748;13.882;2022-08-05T12:44:25;21.30;99.90
11385;DHT22;5747;56.748;13.882;2022-08-05T12:47:01;21.30;99.90
11385;DHT22;5747;56.748;13.882;2022-08-05T12:49:44;21.30;99.90
11385;DHT22;5747;56.748;13.882;2022-08-05T12:52:32;21.40;99.90
11385;DHT22;5747;56.748;13.882;2022-08-05T12:55:19;21.50;99.90
11385;DHT22;5747;56.748;13.882;2022-08-05T12:57:49;21.20;99.90
11385;DHT22;5747;56.748;13.882;2022-08-05T13:00:41;21.10;99.90
11385;DHT22;5747;56.748;13.882;2022-08-05T13:03:33;21.00;99.90
11385;DHT22;5747;56.748;13.882;2022-08-05T13:06:18;20.80;99.90
11385;DHT22;5747;56.748;13.882;2022-08-05T13:08:46;20.70;99.90
11385;DHT22;5747;56.748;13.882;2022-08-05T13:11:19;20.70;99.90
11385;DHT22;5747;56.748;13.882;2022-08-05T13:14:14;20.70;99.90
11385;DHT22;5747;56.748;13.882;2022-08-05T13:16:53;20.60;99.90
11385;DHT22;5747;56.748;13.882;2022-08-05T13:19:24;20.40;99.90
11385;DHT22;5747;56.748;13.882;2022-08-05T13:22:13;20.10;99.90
11385;DHT22;5747;56.748;13.882;2022-08-05T13:24:56;19.80;99.90
11385;DHT22;5747;56.748;13.882;2022-08-05T13:27:28;19.70;99.90
11385;DHT22;5747;56.748;13.882;2022-08-05T13:30:06;19.60;99.90
11385;DHT22;5747;56.748;13.882;2022-08-05T13:32:54;19.60;99.90
11385;DHT22;5747;56.748;13.882;2022-08-05T13:35:29;19.70;99.90
11385;DHT22;5747;56.748;13.882;2022-08-05T13:38:17;19.70;99.90
11385;DHT22;5747;56.748;13.882;2022-08-05T13:40:57;19.60;99.90
11385;DHT22;5747;56.748;13.882;2022-08-05T13:43:26;19.60;99.90
11385;DHT22;5747;56.748;13.882;2022-08-05T13:46:14;19.40;99.90
11385;DHT22;5747;56.748;13.882;2022-08-05T13:49:01;19.20;99.90
11385;DHT22;5747;56.748;13.882;2022-08-05T13:51:32;19.20;99.90
11385;DHT22;5747;56.748;13.882;2022-08-05T13:54:02;19.20;99.90
11385;DHT22;5747;56.748;13.882;2022-08-05T13:56:39;19.10;99.90
11385;DHT22;5747;56.748;13.882;2022-08-05T13:59:18;19.10;99.90
11385;DHT22;5747;56.748;13.882;2022-08-05T14:01:51;19.00;99.90
11385;DHT22;5747;56.748;13.882;2022-08-05T14:04:26;19.00;99.90
11385;DHT22;5747;56.748;13.882;2022-08-05T14:07:19;18.90;99.90
11385;DHT22;5747;56.748;13.882;2022-08-05T14:10:09;18.90;99.90
11385;DHT22;5747;56.748;13.882;2022-08-05T14:12:37;19.00;99.90
11385;DHT22;5747;56.748;13.882;2022-08-05T14:15:10;19.00;99.90
11385;DHT22;5747;56.748;13.882;2022-08-05T14:17:58;19.00;99.90
11385;DHT22;5747;56.748;13.882;2022-08-05T14:20:27;19.10;99.90
11385;DHT22;5747;56.748;13.882;2022-08-05T14:22:58;19.00;99.90
11385;DHT22;5747;56.748;13.882;2022-08-05T14:25:26;18.70;99.90
11385;DHT22;5747;56.748;13.882;2022-08-05T14:27:56;18.40;99.90
11385;DHT22;5747;56.748;13.882;2022-08-05T14:30:25;18.20;99.90
11385;DHT22;5747;56.748;13.882;2022-08-05T14:32:54;18.20;99.90
11385;DHT22;5747;56.748;13.882;2022-08-05T14:35:23;17.90;99.90
11385;DHT22;5747;56.748;13.882;2022-08-05T14:38:13;17.80;99.90
11385;DHT22;5747;56.748;13.882;2022-08-05T14:40:59;17.70;99.90
11385;DHT22;5747;56.748;13.882;2022-08-05T14:43:33;17.70;99.90
11385;DHT22;5747;56.748;13.882;2022-08-05T14:46:21;17.60;99.90
11385;DHT22;5747;56.748;13.882;2022-08-05T14:48:56;17.60;99.90
11385;DHT22;5747;56.748;13.882;2022-08-05T14:51:33;17.50;99.90
11385;DHT22;5747;56.748;13.882;2022-08-05T14:54:03;17.40;99.90
11385;DHT22;5747;56.748;13.882;2022-08-05T14:56:51;17.40;99.90
11385;DHT22;5747;56.748;13.882;2022-08-05T14:59:20;17.40;99.90
11385;DHT22;5747;56.748;13.882;2022-08-05T15:01:49;17.30;99.90
11385;DHT22;5747;56.748;13.882;2022-08-05T15:04:20;17.20;99.90
11385;DHT22;5747;56.748;13.882;2022-08-05T15:06:49;17.10;99.90
11385;DHT22;5747;56.748;13.882;2022-08-05T15:09:20;17.10;99.90
11385;DHT22;5747;56.748;13.882;2022-08-05T15:12:08;17.10;99.90
11385;DHT22;5747;56.748;13.882;2022-08-05T15:14:43;17.10;99.90
11385;DHT22;5747;56.748;13.882;2022-08-05T15:17:17;17.10;99.90
11385;DHT22;5747;56.748;13.882;2022-08-05T15:20:06;17.20;99.90
11385;DHT22;5747;56.748;13.882;2022-08-05T15:22:44;17.10;99.90
11385;DHT22;5747;56.748;13.882;2022-08-05T15:25:21;17.00;99.90
11385;DHT22;5747;56.748;13.882;2022-08-05T15:28:10;16.80;99.90
11385;DHT22;5747;56.748;13.882;2022-08-05T15:30:40;16.70;99.90
11385;DHT22;5747;56.748;13.882;2022-08-05T15:33:11;16.60;99.90
11385;DHT22;5747;56.748;13.882;2022-08-05T15:35:59;16.50;99.90
11385;DHT22;5747;56.748;13.882;2022-08-05T15:38:29;16.30;99.90
11385;DHT22;5747;56.748;13.882;2022-08-05T15:41:04;16.30;99.90
11385;DHT22;5747;56.748;13.882;2022-08-05T15:43:50;16.20;99.90
11385;DHT22;5747;56.748;13.882;2022-08-05T15:46:21;16.10;99.90
11385;DHT22;5747;56.748;13.882;2022-08-05T15:48:51;16.10;99.90
11385;DHT22;5747;56.748;13.882;2022-08-05T15:51:35;16.00;99.90
11385;DHT22;5747;56.748;13.882;2022-08-05T15:54:23;16.10;99.90
11385;DHT22;5747;56.748;13.882;2022-08-05T15:57:02;16.00;99.90
11385;DHT22;5747;56.748;13.882;2022-08-05T15:59:34;16.00;99.90
11385;DHT22;5747;56.748;13.882;2022-08-05T16:02:04;15.90;99.90
11385;DHT22;5747;56.748;13.882;2022-08-05T16:04:40;15.90;99.90
11385;DHT22;5747;56.748;13.882;2022-08-05T16:07:10;16.00;99.90
11385;DHT22;5747;56.748;13.882;2022-08-05T16:09:39;16.00;99.90
11385;DHT22;5747;56.748;13.882;2022-08-05T16:12:10;16.10;99.90
11385;DHT22;5747;56.748;13.882;2022-08-05T16:14:41;16.20;99.90
11385;DHT22;5747;56.748;13.882;2022-08-05T16:17:09;16.30;99.90
11385;DHT22;5747;56.748;13.882;2022-08-05T16:19:38;16.30;99.90
11385;DHT22;5747;56.748;13.882;2022-08-05T16:22:26;16.30;99.90
11385;DHT22;5747;56.748;13.882;2022-08-05T16:25:00;16.20;99.90
11385;DHT22;5747;56.748;13.882;2022-08-05T16:27:37;16.20;99.90
11385;DHT22;5747;56.748;13.882;2022-08-05T16:30:26;16.20;99.90
11385;DHT22;5747;56.748;13.882;2022-08-05T16:32:55;16.20;99.90